Time;durP1;ratioP1;P1;durP2;ratioP2;P2;SDS_P1;SDS_P2;PMS_P1;PMS_P2;Temp;Humidity;BMP_temperature;BMP_pressure;BME280_temperature;BME280_humidity;BME280_pressure;Samples;Min_cycle;Max_cycle;Signal;HPM_P1;HPM_P2
2022/06/10 00:00:46;;;;;;;4.60;2.10;;;;;;;14.91;83.20;100897.91;5053228;28;20306;-73
2022/06/10 00:03:14;;;;;;;1.83;1.73;;;;;;;14.95;83.47;100902.16;5053798;28;20613;-74
2022/06/10 00:05:43;;;;;;;2.67;2.10;;;;;;;14.93;82.93;100910.09;5053722;28;20277;-74
2022/06/10 00:08:13;;;;;;;2.03;1.53;;;;;;;14.94;83.41;100898.66;5053646;28;20283;-74
2022/06/10 00:10:40;;;;;;;3.67;1.93;;;;;;;14.81;83.07;100913.94;5052761;28;20786;-74
2022/06/10 00:13:07;;;;;;;2.40;1.93;;;;;;;14.79;83.23;100910.50;5053021;28;20252;-74
2022/06/10 00:15:34;;;;;;;2.67;1.90;;;;;;;14.82;83.63;100894.63;5053335;28;20598;-74
2022/06/10 00:18:02;;;;;;;2.07;1.47;;;;;;;14.89;83.33;100892.69;5053584;28;20255;-74
2022/06/10 00:20:32;;;;;;;2.10;1.40;;;;;;;14.88;83.51;100904.97;5053171;28;20205;-74
2022/06/10 00:22:58;;;;;;;1.83;1.60;;;;;;;14.85;83.74;100902.44;5053183;28;20212;-74
2022/06/10 00:25:26;;;;;;;2.30;1.70;;;;;;;14.87;83.29;100907.66;5052797;28;20624;-74
2022/06/10 00:27:52;;;;;;;2.67;1.50;;;;;;;14.83;83.60;100909.50;5053395;28;20225;-74
2022/06/10 00:30:22;;;;;;;1.97;1.73;;;;;;;14.83;83.44;100909.50;5052922;28;20252;-74
2022/06/10 00:32:48;;;;;;;3.60;1.73;;;;;;;14.81;83.37;100918.34;5045062;28;20247;-74
2022/06/10 00:35:16;;;;;;;3.83;3.07;;;;;;;14.58;84.39;100911.09;5053150;28;20271;-74
2022/06/10 00:37:43;;;;;;;2.60;1.90;;;;;;;14.63;84.72;100890.81;5052638;28;20577;-74
2022/06/10 00:40:15;;;;;;;2.43;2.23;;;;;;;14.60;84.40;100883.88;5052472;28;20213;-74
2022/06/10 00:42:41;;;;;;;5.03;2.63;;;;;;;14.60;84.36;100889.13;5052822;28;20221;-74
2022/06/10 00:45:41;;;;;;;3.33;1.80;;;;;;;14.62;84.84;100881.19;5053187;28;20225;-74
2022/06/10 00:48:11;;;;;;;2.20;1.90;;;;;;;14.65;84.37;100887.25;5052704;28;20209;-74
2022/06/10 00:50:39;;;;;;;3.23;1.80;;;;;;;14.59;83.99;100902.28;5052443;28;20756;-74
2022/06/10 00:53:11;;;;;;;2.00;1.70;;;;;;;14.62;84.38;100897.81;5052476;28;20296;-74
2022/06/10 00:55:39;;;;;;;2.33;1.53;;;;;;;14.61;83.86;100921.53;5052215;28;20228;-73
2022/06/10 00:58:09;;;;;;;1.93;1.67;;;;;;;14.64;83.59;100924.91;5052777;28;20265;-73
2022/06/10 01:00:38;;;;;;;2.27;1.60;;;;;;;14.60;83.98;100923.28;5052280;28;20202;-74
2022/06/10 01:03:05;;;;;;;3.63;2.40;;;;;;;14.50;84.72;100914.75;5051842;28;20205;-74
2022/06/10 01:05:32;;;;;;;2.73;1.80;;;;;;;14.55;84.18;100905.88;5052466;28;20316;-74
2022/06/10 01:08:04;;;;;;;2.67;2.00;;;;;;;14.55;84.16;100917.28;5052443;28;20205;-74
2022/06/10 01:10:39;;;;;;;2.70;2.03;;;;;;;14.54;84.54;100910.28;5052057;28;20223;-74
2022/06/10 01:13:17;;;;;;;2.57;2.27;;;;;;;14.48;84.84;100915.72;5051979;28;20204;-73
2022/06/10 01:15:53;;;;;;;2.67;2.00;;;;;;;14.48;84.66;100892.91;5052417;28;20287;-74
2022/06/10 01:18:36;;;;;;;2.00;1.90;;;;;;;14.50;84.46;100911.28;5052390;28;20192;-74
2022/06/10 01:21:18;;;;;;;2.47;2.23;;;;;;;14.52;83.64;100921.75;5052306;28;20201;-74
2022/06/10 01:24:18;;;;;;;1.83;1.73;;;;;;;14.47;83.83;100924.50;5052400;28;20198;-74
2022/06/10 01:30:11;;;;;;;3.07;2.20;;;;;;;14.43;84.41;100912.34;5051787;28;20265;-73
2022/06/10 01:32:51;;;;;;;2.03;1.70;;;;;;;14.44;84.67;100912.28;5052245;28;20205;-74
2022/06/10 01:35:23;;;;;;;3.70;1.93;;;;;;;14.43;84.14;100921.09;5052261;28;20297;-73
2022/06/10 01:38:00;;;;;;;3.33;1.73;;;;;;;14.40;84.49;100922.94;5051859;28;20636;-74
2022/06/10 01:40:34;;;;;;;2.37;1.80;;;;;;;14.37;84.53;100915.13;5051700;28;20197;-73
2022/06/10 01:43:08;;;;;;;2.13;1.90;;;;;;;14.34;85.30;100902.94;5051828;28;20221;-74
2022/06/10 01:45:39;;;;;;;2.57;2.20;;;;;;;14.28;85.52;100898.72;5051726;28;20236;-73
2022/06/10 01:48:14;;;;;;;2.43;2.20;;;;;;;14.29;85.52;100889.06;5051858;28;20196;-74
2022/06/10 01:50:47;;;;;;;3.43;2.63;;;;;;;14.28;85.55;100903.13;5051520;28;20211;-74
2022/06/10 01:53:20;;;;;;;2.60;2.40;;;;;;;14.29;85.08;100903.09;5051981;28;20189;-74
2022/06/10 01:55:52;;;;;;;3.03;2.40;;;;;;;14.26;85.22;100904.94;5051400;28;20301;-73
2022/06/10 01:58:24;;;;;;;3.70;2.50;;;;;;;14.28;85.45;100900.50;5051978;28;20189;-73
2022/06/10 02:01:07;;;;;;;2.77;2.27;;;;;;;14.26;85.34;100897.91;5051114;28;20694;-73
2022/06/10 02:03:39;;;;;;;2.23;2.10;;;;;;;14.23;85.38;100902.38;5051641;28;20261;-74
2022/06/10 02:06:11;;;;;;;2.90;2.20;;;;;;;14.20;85.43;100899.84;5051726;28;20233;-74
2022/06/10 02:08:41;;;;;;;2.90;2.40;;;;;;;14.15;85.78;100897.31;5051560;28;20605;-74
2022/06/10 02:11:12;;;;;;;3.53;2.70;;;;;;;14.17;85.69;100895.53;5051150;28;20260;-74
2022/06/10 02:13:43;;;;;;;2.40;2.20;;;;;;;14.15;85.84;100902.56;5052661;28;20240;-73
2022/06/10 02:16:13;;;;;;;3.90;2.33;;;;;;;14.16;85.36;100900.81;5055686;28;20566;-73
2022/06/10 02:18:46;;;;;;;2.40;2.20;;;;;;;14.16;84.90;100914.81;5055710;28;20212;-74
2022/06/10 02:21:17;;;;;;;2.43;2.10;;;;;;;14.16;85.62;100927.09;5055534;28;20189;-73
2022/06/10 02:23:49;;;;;;;2.23;2.00;;;;;;;14.15;85.14;100935.84;5055773;28;20200;-74
2022/06/10 02:26:17;;;;;;;3.07;2.60;;;;;;;14.12;85.41;100931.53;5054987;28;20631;-73
2022/06/10 02:28:49;;;;;;;3.50;2.30;;;;;;;14.13;85.49;100928.00;5055060;28;20217;-73
2022/06/10 02:31:21;;;;;;;2.73;2.50;;;;;;;14.09;85.82;100924.63;5055146;28;20647;-73
2022/06/10 02:33:49;;;;;;;3.10;2.60;;;;;;;14.07;85.66;100921.16;5035486;28;20221;-74
2022/06/10 02:36:21;;;;;;;3.17;2.97;;;;;;;14.04;85.88;100923.00;5035164;28;20222;-74
2022/06/10 02:38:56;;;;;;;2.80;2.60;;;;;;;14.00;85.35;100922.22;5035019;28;20559;-73
2022/06/10 02:41:31;;;;;;;2.90;2.70;;;;;;;14.01;85.56;100929.22;5034818;28;20684;-74
2022/06/10 02:44:06;;;;;;;3.67;2.53;;;;;;;14.00;85.41;100934.50;5034925;28;20190;-74
2022/06/10 02:46:37;;;;;;;3.47;2.90;;;;;;;13.97;85.69;100921.44;5034787;28;20236;-73
2022/06/10 02:49:08;;;;;;;6.90;3.03;;;;;;;13.90;85.65;100916.34;5034501;28;20255;-73
2022/06/10 02:51:37;;;;;;;3.10;2.47;;;;;;;13.86;85.56;100921.72;5034712;28;20210;-74
2022/06/10 02:54:07;;;;;;;3.33;2.80;;;;;;;13.93;85.41;100919.78;5034913;28;20214;-74
2022/06/10 02:56:33;;;;;;;2.83;2.53;;;;;;;13.93;85.23;100935.53;5034824;28;20241;-73
2022/06/10 03:02:01;;;;;;;3.20;3.00;;;;;;;13.84;85.80;100926.13;5046698;28;20215;-74
2022/06/10 03:04:40;;;;;;;4.00;3.73;;;;;;;13.85;86.21;100920.81;5054836;28;20249;-74
2022/06/10 03:07:27;;;;;;;3.57;3.27;;;;;;;13.82;85.97;100915.66;5054560;28;20215;-74
2022/06/10 03:10:09;;;;;;;4.13;3.40;;;;;;;13.81;86.35;100908.69;5054412;28;20202;-74
2022/06/10 03:12:40;;;;;;;3.87;3.53;;;;;;;13.74;87.60;100891.38;5053684;28;20246;-73
2022/06/10 03:15:16;;;;;;;3.90;3.60;;;;;;;13.74;87.77;100873.03;5054783;28;20229;-74
2022/06/10 03:17:53;;;;;;;4.23;3.87;;;;;;;13.76;87.73;100876.47;5054714;28;20205;-74
2022/06/10 03:20:27;;;;;;;4.87;3.60;;;;;;;13.81;87.73;100881.59;5053836;28;20212;-73
2022/06/10 03:23:06;;;;;;;4.67;3.90;;;;;;;13.81;87.67;100892.09;5054617;28;20200;-74
2022/06/10 03:25:39;;;;;;;4.50;4.10;;;;;;;13.87;86.96;100902.41;5053715;28;20275;-74
2022/06/10 03:28:12;;;;;;;4.87;3.63;;;;;;;13.84;87.11;100915.63;5054240;28;20209;-74
2022/06/10 03:30:44;;;;;;;4.27;3.87;;;;;;;13.84;86.99;100919.13;5053540;28;20299;-74
2022/06/10 03:33:17;;;;;;;4.37;3.97;;;;;;;13.84;86.70;100919.13;5054285;28;20240;-74
2022/06/10 03:35:48;;;;;;;4.30;3.80;;;;;;;13.84;86.47;100919.13;5053986;28;20715;-74
2022/06/10 03:38:15;;;;;;;3.43;3.10;;;;;;;13.85;86.83;100931.31;5054156;28;20209;-74
2022/06/10 03:40:44;;;;;;;4.10;3.90;;;;;;;13.86;86.50;100927.81;5053585;28;20213;-74
2022/06/10 03:43:14;;;;;;;4.37;3.97;;;;;;;13.90;86.56;100936.47;5053752;28;20216;-74
2022/06/10 03:45:46;;;;;;;4.53;3.83;;;;;;;13.91;87.06;100935.56;5054143;28;20231;-74
2022/06/10 03:48:16;;;;;;;4.20;3.90;;;;;;;13.93;87.20;100930.28;5054035;28;20243;-74
2022/06/10 03:50:43;;;;;;;4.90;4.40;;;;;;;13.93;87.63;100918.00;5053827;28;20264;-74
2022/06/10 03:53:15;;;;;;;5.53;4.33;;;;;;;13.98;87.38;100920.53;5053756;28;20229;-74
2022/06/10 03:55:42;;;;;;;5.53;4.20;;;;;;;13.97;87.37;100918.81;5053476;28;20582;-73
2022/06/10 03:58:09;;;;;;;6.40;5.80;;;;;;;13.93;87.91;100918.00;5053695;28;20210;-74
2022/06/10 04:00:37;;;;;;;4.73;4.37;;;;;;;13.97;87.80;100909.16;5053359;28;20299;-74
2022/06/10 04:03:04;;;;;;;7.73;7.03;;;;;;;14.02;87.83;100917.78;5053513;28;20272;-74
2022/06/10 04:05:31;;;;;;;5.13;4.63;;;;;;;14.03;87.99;100911.66;5053533;28;20224;-73
2022/06/10 04:07:58;;;;;;;5.97;5.53;;;;;;;14.05;88.20;100912.47;5053559;28;20207;-74
2022/06/10 04:10:29;;;;;;;4.50;4.10;;;;;;;14.08;88.36;100914.16;5053332;28;20220;-74
2022/06/10 04:12:56;;;;;;;5.00;4.50;;;;;;;14.09;88.50;100918.47;5052740;28;20282;-73
2022/06/10 04:15:24;;;;;;;8.10;5.10;;;;;;;14.12;88.19;100918.41;5053029;28;20286;-74
2022/06/10 04:17:51;;;;;;;5.90;4.77;;;;;;;14.18;88.21;100925.28;5053516;28;20725;-73
2022/06/10 04:20:20;;;;;;;6.87;6.17;;;;;;;14.22;88.00;100917.28;5052841;28;20209;-73
2022/06/10 04:22:47;;;;;;;4.90;4.60;;;;;;;14.21;88.38;100919.94;5053391;28;20232;-74
2022/06/10 04:25:14;;;;;;;5.07;4.67;;;;;;;14.24;88.35;100923.34;5053374;28;20228;-74
2022/06/10 04:27:42;;;;;;;6.83;6.13;;;;;;;14.25;88.45;100925.09;5053077;28;20206;-74
2022/06/10 04:30:16;;;;;;;8.70;7.50;;;;;;;14.29;88.76;100924.09;5052583;28;20204;-74
2022/06/10 04:32:43;;;;;;;5.30;4.90;;;;;;;14.35;88.22;100928.31;5052852;28;20213;-74
2022/06/10 04:35:09;;;;;;;10.10;9.03;;;;;;;14.40;88.45;100926.41;5053235;28;20233;-74
2022/06/10 04:37:35;;;;;;;12.77;8.60;;;;;;;14.38;88.79;100917.72;5051677;28;20256;-74
2022/06/10 04:40:02;;;;;;;6.53;5.90;;;;;;;14.41;89.65;100898.38;5052991;28;20205;-73
2022/06/10 04:42:28;;;;;;;6.87;6.27;;;;;;;14.48;89.03;100915.72;5052655;28;20212;-73
2022/06/10 04:44:57;;;;;;;6.83;5.43;;;;;;;14.50;89.01;100927.88;5052836;28;20224;-73
2022/06/10 04:47:24;;;;;;;8.00;6.07;;;;;;;14.56;89.02;100926.91;5052925;28;20255;-73
2022/06/10 04:49:50;;;;;;;7.03;6.43;;;;;;;14.63;88.56;100940.75;5052569;28;20204;-74
2022/06/10 04:52:17;;;;;;;8.97;8.37;;;;;;;14.56;88.46;100941.78;5052999;28;20232;-73
2022/06/10 04:54:43;;;;;;;5.60;5.20;;;;;;;14.64;88.89;100938.06;5052908;28;20214;-74
2022/06/10 04:57:10;;;;;;;7.17;6.57;;;;;;;14.68;88.72;100933.56;5052693;28;20209;-74
2022/06/10 04:59:37;;;;;;;10.30;6.17;;;;;;;14.73;88.36;100955.34;5052184;28;20223;-73
2022/06/10 05:02:05;;;;;;;8.83;8.13;;;;;;;14.70;89.00;100945.75;5052748;28;20205;-73
2022/06/10 05:04:31;;;;;;;15.53;12.03;;;;;;;14.65;88.44;100957.31;5052503;28;20710;-74
2022/06/10 05:06:58;;;;;;;11.20;10.20;;;;;;;14.73;88.75;100949.19;5052601;28;20204;-74
2022/06/10 05:09:24;;;;;;;11.23;10.33;;;;;;;14.76;87.88;100972.78;5052432;28;20283;-74
2022/06/10 05:11:51;;;;;;;16.70;15.17;;;;;;;14.66;87.78;100965.13;5051675;28;20621;-74
2022/06/10 05:14:17;;;;;;;15.83;14.37;;;;;;;14.81;87.34;100986.69;5052749;28;20227;-74
2022/06/10 05:16:44;;;;;;;15.27;13.93;;;;;;;14.92;87.05;100995.09;5052442;28;20232;-73
2022/06/10 05:19:12;;;;;;;13.40;12.30;;;;;;;15.03;87.46;100992.19;5052128;28;20209;-74
2022/06/10 05:21:38;;;;;;;14.10;12.93;;;;;;;15.07;87.53;100981.53;5052568;28;20259;-73
2022/06/10 05:24:05;;;;;;;18.27;13.27;;;;;;;15.18;86.97;100999.63;5049030;28;20826;-74
2022/06/10 05:26:33;;;;;;;15.20;14.03;;;;;;;15.29;86.55;101021.22;5043938;28;20222;-73
2022/06/10 05:28:59;;;;;;;14.83;13.60;;;;;;;15.31;85.49;101055.38;5041306;28;20208;-74
2022/06/10 05:31:26;;;;;;;15.87;14.47;;;;;;;15.27;86.22;101040.56;5048380;28;20201;-73
2022/06/10 05:36:37;;;;;;;17.23;15.87;;;;;;;15.15;87.04;101026.00;5042463;28;20236;-73
2022/06/10 05:39:05;;;;;;;18.20;15.67;;;;;;;15.11;88.03;100995.44;5041733;28;20198;-73
2022/06/10 05:44:16;;;;;;;15.77;14.50;;;;;;;15.40;88.59;100972.66;5040886;28;20217;-73
2022/06/10 05:46:43;;;;;;;17.47;16.07;;;;;;;15.45;88.40;100982.16;5041277;28;20271;-74
2022/06/10 05:49:10;;;;;;;16.53;15.20;;;;;;;15.55;88.32;100985.38;5041620;28;20214;-74
2022/06/10 05:51:38;;;;;;;16.70;15.33;;;;;;;15.61;88.61;100969.38;5042394;28;20194;-73
2022/06/10 05:54:05;;;;;;;15.53;14.10;;;;;;;15.59;88.81;100972.97;5041760;28;20268;-73
2022/06/10 05:56:32;;;;;;;16.67;15.07;;;;;;;15.61;86.26;101008.84;5039682;28;20279;-73
2022/06/10 05:58:58;;;;;;;15.00;13.83;;;;;;;15.67;86.93;101018.34;5042860;28;20308;-73
2022/06/10 06:01:25;;;;;;;16.17;14.87;;;;;;;15.79;86.31;101039.03;5048374;28;20201;-73
2022/06/10 06:03:51;;;;;;;19.23;16.13;;;;;;;15.83;85.75;101059.09;5042831;28;20206;-74
2022/06/10 06:06:20;;;;;;;16.73;15.30;;;;;;;15.80;85.50;101069.75;5040418;28;20233;-73
2022/06/10 06:08:48;;;;;;;15.37;13.87;;;;;;;15.83;84.38;101095.09;5040135;28;20254;-74
2022/06/10 06:11:15;;;;;;;16.77;14.57;;;;;;;15.85;84.85;101098.53;5042746;28;20214;-74
2022/06/10 06:13:42;;;;;;;14.87;13.53;;;;;;;15.92;85.22;101102.72;5042130;28;20218;-73
2022/06/10 06:16:10;;;;;;;12.50;11.30;;;;;;;16.02;84.22;101106.81;5041054;28;20252;-74
2022/06/10 06:18:36;;;;;;;12.57;11.53;;;;;;;16.02;82.20;101156.84;5040057;28;20641;-73
2022/06/10 06:21:03;;;;;;;12.17;11.17;;;;;;;16.08;82.13;101182.97;5041427;28;20201;-74
2022/06/10 06:23:30;;;;;;;11.03;10.13;;;;;;;16.14;81.44;101200.38;5041437;28;20248;-74
2022/06/10 06:25:58;;;;;;;10.97;9.87;;;;;;;16.14;79.38;101236.41;5045731;28;20217;-74
2022/06/10 06:28:24;;;;;;;10.80;9.70;;;;;;;16.26;79.47;101254.47;5050958;28;20627;-74
2022/06/10 06:30:51;;;;;;;10.10;9.20;;;;;;;16.22;78.25;101277.41;5051040;28;20205;-74
2022/06/10 06:33:17;;;;;;;10.10;8.30;;;;;;;16.20;77.30;101334.53;5051148;28;20233;-73
2022/06/10 06:35:51;;;;;;;9.20;8.03;;;;;;;16.27;77.35;101328.19;5051395;28;20280;-74
2022/06/10 06:38:18;;;;;;;10.57;9.53;;;;;;;16.27;77.00;101343.13;5051041;28;20186;-73
2022/06/10 06:40:44;;;;;;;9.33;7.97;;;;;;;16.30;76.91;101342.19;5050925;28;20256;-74
2022/06/10 06:43:12;;;;;;;8.20;7.43;;;;;;;16.23;75.31;101386.28;5050848;28;20268;-73
2022/06/10 06:45:40;;;;;;;8.47;6.83;;;;;;;16.24;75.20;101401.19;5051356;28;20233;-74
2022/06/10 06:48:10;;;;;;;10.70;7.93;;;;;;;16.36;75.64;101387.66;5051075;28;20292;-74
2022/06/10 06:50:40;;;;;;;8.37;7.07;;;;;;;16.46;76.30;101377.75;5051020;28;20206;-75
2022/06/10 06:53:07;;;;;;;7.77;6.70;;;;;;;16.56;75.97;101375.72;5051231;28;20279;-76
2022/06/10 06:55:35;;;;;;;7.23;6.17;;;;;;;16.48;73.17;101420.72;5052977;28;20226;-75
2022/06/10 06:58:01;;;;;;;8.07;6.27;;;;;;;16.58;73.10;101469.63;5056253;28;20550;-74
2022/06/10 07:00:29;;;;;;;8.10;5.60;;;;;;;16.70;74.04;101449.13;5057928;28;20205;-75
2022/06/10 07:02:56;;;;;;;8.43;5.20;;;;;;;16.78;73.12;101455.91;5055660;28;20201;-75
2022/06/10 07:05:23;;;;;;;5.77;5.27;;;;;;;16.80;72.93;101476.97;5054789;28;20227;-75
2022/06/10 07:07:49;;;;;;;6.40;5.27;;;;;;;16.78;72.36;101500.72;5054899;28;20261;-75
2022/06/10 07:10:18;;;;;;;7.27;6.47;;;;;;;16.88;73.28;101475.84;5054705;28;20206;-75
2022/06/10 07:12:45;;;;;;;9.87;5.23;;;;;;;17.13;75.83;101396.00;5054583;28;20282;-74
2022/06/10 07:15:12;;;;;;;5.63;4.90;;;;;;;17.14;71.51;101490.06;5054531;28;20231;-75
2022/06/10 07:17:41;;;;;;;6.07;5.23;;;;;;;17.19;71.46;101516.34;5054871;28;20208;-75
2022/06/10 07:20:20;;;;;;;6.13;5.27;;;;;;;17.25;73.02;101482.69;5054240;28;20210;-74
2022/06/10 07:22:47;;;;;;;6.43;5.80;;;;;;;17.27;71.34;101498.50;5054702;28;20273;-75
2022/06/10 07:25:14;;;;;;;6.03;5.53;;;;;;;17.23;70.41;101553.13;5054217;28;20231;-74
2022/06/10 07:27:41;;;;;;;6.03;5.53;;;;;;;17.16;69.48;101548.94;5053685;28;20674;-74
2022/06/10 07:30:09;;;;;;;6.23;5.63;;;;;;;17.19;71.06;101551.50;5053875;28;20625;-74
2022/06/10 07:32:35;;;;;;;8.37;6.13;;;;;;;17.32;72.18;101500.97;5051577;28;20232;-75
2022/06/10 07:35:04;;;;;;;6.43;5.83;;;;;;;17.39;70.17;101540.34;5044595;28;20220;-75
2022/06/10 07:37:31;;;;;;;6.73;5.77;;;;;;;17.42;69.47;101566.66;5037842;28;20289;-76
2022/06/10 07:39:58;;;;;;;5.80;5.23;;;;;;;17.49;68.66;101571.75;5033156;28;20626;-74
2022/06/10 07:42:23;;;;;;;7.00;4.90;;;;;;;17.56;68.51;101600.59;5032939;28;20272;-75
2022/06/10 07:44:50;;;;;;;5.73;4.90;;;;;;;17.65;68.85;101597.66;5033813;28;20231;-75
2022/06/10 07:47:17;;;;;;;5.63;4.90;;;;;;;17.71;68.08;101617.72;5033542;28;20212;-75
2022/06/10 07:49:43;;;;;;;4.47;3.90;;;;;;;17.76;66.71;101666.00;5047340;28;20203;-75
2022/06/10 07:52:12;;;;;;;7.07;4.30;;;;;;;17.80;65.46;101680.84;5053287;28;20933;-74
2022/06/10 07:54:39;;;;;;;3.70;3.40;;;;;;;17.92;64.72;101723.69;5053017;28;20248;-72
2022/06/10 07:57:08;;;;;;;3.87;3.20;;;;;;;18.01;65.59;101703.16;5053334;28;20244;-72
2022/06/10 07:59:35;;;;;;;4.07;2.63;;;;;;;18.03;64.14;101755.97;5052524;28;20218;-72
2022/06/10 08:02:01;;;;;;;6.07;2.73;;;;;;;18.13;63.73;101761.84;5053631;28;20234;-72
2022/06/10 08:04:28;;;;;;;4.47;2.80;;;;;;;18.16;63.16;101761.78;5053430;28;20615;-72
2022/06/10 08:06:54;;;;;;;4.53;2.10;;;;;;;18.17;60.92;101825.13;5056564;28;20267;-72
2022/06/10 08:09:23;;;;;;;3.67;1.77;;;;;;;18.25;60.32;101852.22;5072951;28;20217;-72
2022/06/10 08:11:50;;;;;;;6.70;2.50;;;;;;;18.33;60.65;101862.56;5062874;28;20310;-71
2022/06/10 08:14:16;;;;;;;5.93;2.60;;;;;;;18.35;60.89;101854.59;5052307;28;20228;-72
2022/06/10 08:16:43;;;;;;;4.27;2.57;;;;;;;18.37;60.61;101852.78;5052858;28;20289;-72
2022/06/10 08:19:09;;;;;;;6.33;2.60;;;;;;;18.42;60.76;101853.53;5052965;28;20211;-72
2022/06/10 08:24:20;;;;;;;5.30;3.00;;;;;;;18.51;61.89;101818.00;5053029;28;20255;-72
2022/06/10 08:26:48;;;;;;;4.80;2.57;;;;;;;18.58;61.07;101812.47;5052937;28;20242;-72
2022/06/10 08:29:15;;;;;;;4.80;2.40;;;;;;;18.65;58.77;101842.25;5052214;28;20213;-72
2022/06/10 08:31:41;;;;;;;4.13;2.70;;;;;;;18.68;58.89;101884.47;5052543;28;20216;-72
2022/06/10 08:34:07;;;;;;;5.17;3.00;;;;;;;18.70;58.33;101892.38;5053052;28;20222;-72
2022/06/10 08:36:34;;;;;;;3.40;2.73;;;;;;;18.79;59.99;101887.72;5053186;28;20283;-73
2022/06/10 08:39:01;;;;;;;5.90;3.57;;;;;;;18.81;59.49;101856.78;5052862;28;20204;-72
2022/06/10 08:41:35;;;;;;;3.73;2.73;;;;;;;18.90;58.66;101878.59;5052973;28;20233;-72
2022/06/10 08:44:11;;;;;;;4.20;2.63;;;;;;;18.98;56.09;101921.56;5052572;28;20535;-72
2022/06/10 08:47:01;;;;;;;4.07;2.20;;;;;;;19.00;56.47;101951.47;5052868;28;20656;-72
2022/06/10 08:49:54;;;;;;;6.53;2.70;;;;;;;19.15;56.59;101937.78;5050045;28;20203;-72
2022/06/10 08:52:28;;;;;;;4.57;2.57;;;;;;;18.99;54.40;101961.22;5052947;28;20216;-72
2022/06/10 08:55:03;;;;;;;3.93;2.00;;;;;;;19.11;55.58;101970.56;5052232;28;20759;-72
2022/06/10 08:57:36;;;;;;;5.17;2.40;;;;;;;19.27;56.55;101933.91;5052394;28;20195;-72
2022/06/10 09:00:12;;;;;;;3.80;2.63;;;;;;;19.29;53.47;101940.00;5052340;28;20214;-72
2022/06/10 09:02:42;;;;;;;4.00;2.60;;;;;;;19.39;53.78;101986.47;5052392;28;20204;-72
2022/06/10 09:05:16;;;;;;;5.43;2.40;;;;;;;19.38;53.92;101997.97;5052448;28;20306;-72
2022/06/10 09:07:46;;;;;;;4.87;2.70;;;;;;;19.46;54.31;102016.25;5052459;28;20237;-72
2022/06/10 09:10:20;;;;;;;5.07;2.20;;;;;;;19.54;54.33;102011.59;5052022;28;20204;-72
2022/06/10 09:13:12;;;;;;;2.17;1.87;;;;;;;19.67;56.02;101974.13;5050201;28;20208;-72
2022/06/10 09:15:46;;;;;;;4.13;2.10;;;;;;;19.74;54.52;101991.56;5049476;28;20218;-72
2022/06/10 09:18:21;;;;;;;4.13;1.97;;;;;;;19.72;52.51;102031.41;5052306;28;20295;-72
2022/06/10 09:20:54;;;;;;;4.43;1.70;;;;;;;19.78;52.52;102075.34;5051499;28;20600;-72
2022/06/10 09:23:32;;;;;;;6.43;2.33;;;;;;;19.82;50.47;102079.66;5051588;28;20200;-72
2022/06/10 09:26:07;;;;;;;3.97;2.07;;;;;;;19.86;51.15;102123.72;5052108;28;20228;-72
2022/06/10 09:28:35;;;;;;;2.90;1.90;;;;;;;19.93;50.85;102132.34;5051947;28;20231;-72
2022/06/10 09:31:10;;;;;;;4.17;2.00;;;;;;;19.98;49.79;102090.63;5051001;28;20738;-72
2022/06/10 09:33:43;;;;;;;3.20;1.80;;;;;;;20.02;49.59;102097.59;5051980;28;20215;-72
2022/06/10 09:36:17;;;;;;;3.77;1.97;;;;;;;20.12;49.82;102085.78;5051884;28;20236;-72
2022/06/10 09:38:53;;;;;;;3.87;1.87;;;;;;;20.12;48.68;102088.41;5052058;28;20258;-72
2022/06/10 09:41:28;;;;;;;3.93;1.93;;;;;;;20.18;48.83;102165.13;5052008;28;20266;-72
2022/06/10 09:44:04;;;;;;;5.33;1.97;;;;;;;20.20;48.53;102171.25;5051922;28;20192;-72
2022/06/10 09:46:49;;;;;;;2.23;1.97;;;;;;;20.26;50.01;102137.47;5051640;28;20590;-72
2022/06/10 09:49:36;;;;;;;8.50;2.50;;;;;;;20.36;50.98;102093.84;5051074;28;20206;-72
2022/06/10 09:52:13;;;;;;;3.63;1.60;;;;;;;20.51;48.73;102071.22;5051753;28;20254;-72
2022/06/10 09:54:52;;;;;;;5.27;1.70;;;;;;;20.58;49.31;102128.47;5051287;28;20231;-72
2022/06/10 09:57:42;;;;;;;3.77;1.73;;;;;;;20.63;50.28;102061.09;5051636;28;20200;-72
2022/06/10 10:00:17;;;;;;;3.77;1.97;;;;;;;20.73;49.18;102072.25;5051421;28;20204;-72
2022/06/10 10:03:05;;;;;;;2.37;1.37;;;;;;;20.67;47.79;102109.59;5051614;28;20257;-72
2022/06/10 10:05:41;;;;;;;4.90;2.00;;;;;;;20.79;49.63;102118.91;5051371;28;20227;-72
2022/06/10 10:08:19;;;;;;;4.90;2.20;;;;;;;20.82;48.78;102076.34;5051694;28;20220;-72
2022/06/10 10:10:49;;;;;;;3.27;1.77;;;;;;;20.88;48.32;102091.19;5051335;28;20190;-72
2022/06/10 10:13:32;;;;;;;5.10;1.90;;;;;;;21.03;49.22;102143.75;5050947;28;20207;-72
2022/06/10 10:16:08;;;;;;;4.47;1.80;;;;;;;21.25;48.38;102111.97;5051196;28;20220;-72
2022/06/10 10:18:49;;;;;;;3.10;1.60;;;;;;;21.27;45.96;102106.56;5051161;28;20200;-72
2022/06/10 10:21:22;;;;;;;3.87;1.90;;;;;;;21.23;46.55;102127.09;5051420;28;20212;-72
2022/06/10 10:23:51;;;;;;;1.83;1.60;;;;;;;21.30;48.59;102152.50;5050942;28;20208;-73
2022/06/10 10:26:23;;;;;;;4.57;2.10;;;;;;;21.17;48.52;102149.44;5051361;28;20234;-72
2022/06/10 10:28:57;;;;;;;3.70;1.90;;;;;;;21.21;49.30;102115.66;5050877;28;20584;-72
2022/06/10 10:31:26;;;;;;;3.03;1.73;;;;;;;21.02;48.48;102065.00;5048033;28;20196;-72
2022/06/10 10:33:54;;;;;;;2.27;1.80;;;;;;;21.12;49.22;102044.28;5051176;28;20730;-72
2022/06/10 10:36:31;;;;;;;3.83;2.27;;;;;;;21.12;49.07;102070.84;5055259;28;20282;-73
2022/06/10 10:38:59;;;;;;;3.40;1.80;;;;;;;21.39;49.87;102042.38;5054630;28;20654;-72
2022/06/10 10:41:35;;;;;;;6.20;2.30;;;;;;;21.37;49.32;102033.63;5055054;28;20277;-73
2022/06/10 10:44:06;;;;;;;3.57;2.23;;;;;;;21.17;48.57;102037.03;5054549;28;20254;-72
2022/06/10 10:46:39;;;;;;;3.07;2.03;;;;;;;21.30;50.20;102056.88;5054603;28;20572;-72
2022/06/10 10:49:21;;;;;;;3.93;1.87;;;;;;;21.16;50.20;102049.41;5034751;28;20206;-72
2022/06/10 10:51:50;;;;;;;3.70;1.97;;;;;;;21.23;51.51;102039.44;5034835;28;20864;-72
2022/06/10 10:54:20;;;;;;;5.00;2.37;;;;;;;20.99;51.41;102020.88;5054345;28;20323;-72
2022/06/10 10:56:49;;;;;;;2.70;2.10;;;;;;;20.80;50.82;102010.03;5054824;28;20225;-72
2022/06/10 10:59:29;;;;;;;4.40;2.20;;;;;;;20.84;52.29;101994.88;5054029;28;20210;-73
2022/06/10 11:01:57;;;;;;;5.10;2.17;;;;;;;20.79;52.88;101944.63;5047565;28;20287;-72
2022/06/10 11:04:31;;;;;;;2.57;2.10;;;;;;;20.80;52.79;101929.56;5054596;28;20204;-73
2022/06/10 11:07:06;;;;;;;7.83;2.60;;;;;;;20.70;52.69;101949.41;5054490;28;20191;-72
2022/06/10 11:09:42;;;;;;;3.20;2.40;;;;;;;20.78;52.92;101934.94;5053774;28;20219;-72
2022/06/10 11:12:15;;;;;;;3.43;2.17;;;;;;;20.78;52.21;101945.53;5054649;28;20193;-73
2022/06/10 11:14:42;;;;;;;2.63;2.30;;;;;;;20.79;52.41;101951.69;5054464;28;20208;-72
2022/06/10 11:17:17;;;;;;;2.90;2.37;;;;;;;20.89;52.65;101969.03;5054674;28;20213;-73
2022/06/10 11:19:48;;;;;;;2.67;2.47;;;;;;;20.80;52.01;101962.28;5054199;28;20603;-72
2022/06/10 11:22:28;;;;;;;3.53;2.37;;;;;;;20.86;52.36;101973.59;5054332;28;20258;-72
2022/06/10 11:25:15;;;;;;;6.53;2.30;;;;;;;21.05;53.08;101941.88;5053822;28;20231;-73
2022/06/10 11:27:57;;;;;;;4.40;2.87;;;;;;;21.01;52.32;101959.75;5054158;28;20193;-72
2022/06/10 11:30:25;;;;;;;4.60;3.07;;;;;;;21.06;52.92;101939.16;5053512;28;20303;-72
2022/06/10 11:32:59;;;;;;;2.87;2.60;;;;;;;21.35;52.01;101922.09;5053936;28;20210;-72
2022/06/10 11:35:31;;;;;;;2.63;2.30;;;;;;;21.27;50.04;101976.44;5053868;28;20661;-73
2022/06/10 11:38:01;;;;;;;3.60;2.23;;;;;;;21.44;50.33;101992.59;5054228;28;20292;-72
2022/06/10 11:40:35;;;;;;;5.40;2.90;;;;;;;21.76;48.59;102014.38;5054007;28;20291;-72
2022/06/10 11:43:07;;;;;;;3.80;2.10;;;;;;;21.74;50.20;102038.38;5053537;28;20220;-72
2022/06/10 11:45:40;;;;;;;2.33;1.80;;;;;;;21.90;51.16;101982.78;5053581;28;20224;-73
2022/06/10 11:48:15;;;;;;;5.80;2.63;;;;;;;21.92;51.08;101988.00;5053838;28;20196;-73
2022/06/10 11:50:51;;;;;;;3.83;2.30;;;;;;;21.62;51.53;101959.13;5053421;28;20251;-73
2022/06/10 11:53:23;;;;;;;5.60;2.53;;;;;;;21.68;51.26;101965.97;5053646;28;20192;-73
2022/06/10 11:59:42;;;;;;;4.50;2.40;;;;;;;22.12;51.69;101949.94;5053547;28;20236;-73